Time;durP1;ratioP1;P1;durP2;ratioP2;P2;SDS_P1;SDS_P2;PMS_P1;PMS_P2;Temp;Humidity;BMP_temperature;BMP_pressure;BME280_temperature;BME280_humidity;BME280_pressure;Samples;Min_cycle;Max_cycle;Signal;HPM_P1;HPM_P2
2022/03/29 00:02:23;;;;;;;41.63;25.88;;;;;;;;;;5052941;28;20055;-68
2022/03/29 00:05:27;;;;;;;39.83;25.27;;;;;;;;;;5053160;28;20048;-66
2022/03/29 00:08:31;;;;;;;44.67;25.38;;;;;;;;;;5052800;28;20040;-68
2022/03/29 00:11:35;;;;;;;36.75;24.63;;;;;;;;;;5052621;28;20048;-66
2022/03/29 00:14:40;;;;;;;38.55;24.50;;;;;;;;;;5052716;28;20298;-66
2022/03/29 00:17:44;;;;;;;44.17;25.45;;;;;;;;;;5053001;28;20535;-67
2022/03/29 00:21:06;;;;;;;42.00;23.40;;;;;;;;;;5052825;28;20040;-67
2022/03/29 00:24:11;;;;;;;41.17;23.05;;;;;;;;;;5052006;28;20044;-66
2022/03/29 00:27:15;;;;;;;36.03;22.05;;;;;;;;;;5052518;28;20044;-67
2022/03/29 00:30:19;;;;;;;34.20;21.98;;;;;;;;;;5051591;28;20130;-66
2022/03/29 00:33:23;;;;;;;38.20;22.02;;;;;;;;;;5052575;28;20044;-67
2022/03/29 00:36:28;;;;;;;34.10;20.25;;;;;;;;;;5051605;28;20052;-67
2022/03/29 00:39:33;;;;;;;36.42;20.48;;;;;;;;;;5052360;28;20044;-67
2022/03/29 00:42:38;;;;;;;33.10;19.40;;;;;;;;;;5052418;28;20048;-66
2022/03/29 00:45:43;;;;;;;34.97;18.20;;;;;;;;;;5052231;28;20048;-67
2022/03/29 00:48:47;;;;;;;30.20;17.67;;;;;;;;;;5051883;28;20500;-67
2022/03/29 00:51:58;;;;;;;33.42;18.88;;;;;;;;;;5051568;28;20056;-66
2022/03/29 00:55:02;;;;;;;38.97;20.00;;;;;;;;;;5052019;28;20227;-67
2022/03/29 00:58:07;;;;;;;35.35;19.63;;;;;;;;;;5052186;28;20047;-67
2022/03/29 01:01:12;;;;;;;32.60;20.65;;;;;;;;;;5051962;28;20059;-67
2022/03/29 01:04:17;;;;;;;46.03;21.02;;;;;;;;;;5051927;28;20060;-68
2022/03/29 01:07:21;;;;;;;46.88;25.35;;;;;;;;;;5051071;28;20048;-67
2022/03/29 01:10:26;;;;;;;52.53;23.70;;;;;;;;;;5051868;28;20422;-67
2022/03/29 01:13:30;;;;;;;48.65;22.90;;;;;;;;;;5051537;28;20040;-67
2022/03/29 01:19:59;;;;;;;35.00;18.75;;;;;;;;;;5051249;28;20052;-67
2022/03/29 01:23:03;;;;;;;30.92;17.80;;;;;;;;;;5051277;28;20036;-67
2022/03/29 01:26:08;;;;;;;33.40;18.75;;;;;;;;;;5051052;28;20048;-67
2022/03/29 01:29:13;;;;;;;29.38;18.58;;;;;;;;;;5051474;28;20500;-66
2022/03/29 01:32:18;;;;;;;28.63;19.20;;;;;;;;;;5051003;28;20051;-66
2022/03/29 01:35:24;;;;;;;32.47;17.85;;;;;;;;;;5050960;28;20055;-67
2022/03/29 01:38:28;;;;;;;30.23;17.45;;;;;;;;;;5051116;28;20111;-67
2022/03/29 01:41:32;;;;;;;27.38;17.33;;;;;;;;;;5051002;28;20044;-66
2022/03/29 01:44:37;;;;;;;29.27;17.23;;;;;;;;;;5051238;28;20039;-67
2022/03/29 01:47:41;;;;;;;28.25;17.15;;;;;;;;;;5050873;28;20044;-66
2022/03/29 01:50:48;;;;;;;38.28;19.92;;;;;;;;;;5050739;28;20401;-67
2022/03/29 01:53:53;;;;;;;32.78;17.85;;;;;;;;;;5051034;28;20044;-68
2022/03/29 01:56:58;;;;;;;29.88;17.92;;;;;;;;;;5051103;28;20107;-68
2022/03/29 02:03:26;;;;;;;25.23;15.63;;;;;;;;;;5050619;28;20116;-67
2022/03/29 02:06:31;;;;;;;34.35;16.83;;;;;;;;;;5050748;28;20044;-66
2022/03/29 02:09:35;;;;;;;35.63;16.67;;;;;;;;;;5050468;28;20036;-67
2022/03/29 02:12:39;;;;;;;33.45;17.52;;;;;;;;;;5050609;28;20515;-67
2022/03/29 02:15:44;;;;;;;31.08;17.17;;;;;;;;;;5050406;28;20048;-67
2022/03/29 02:18:48;;;;;;;30.88;16.77;;;;;;;;;;5050210;28;20040;-67
2022/03/29 02:21:53;;;;;;;31.67;16.55;;;;;;;;;;5050014;28;20044;-67
2022/03/29 02:24:57;;;;;;;27.27;15.65;;;;;;;;;;5050380;28;20048;-67
2022/03/29 02:28:02;;;;;;;26.08;16.58;;;;;;;;;;5050759;28;20048;-65
2022/03/29 02:31:07;;;;;;;26.90;14.77;;;;;;;;;;5050293;28;20056;-66
2022/03/29 02:34:11;;;;;;;25.63;15.90;;;;;;;;;;5050515;28;20044;-65
2022/03/29 02:37:15;;;;;;;23.00;14.98;;;;;;;;;;5050565;28;20132;-66
2022/03/29 02:40:20;;;;;;;27.27;15.20;;;;;;;;;;5050313;28;20143;-67
2022/03/29 02:43:25;;;;;;;25.30;15.73;;;;;;;;;;5050578;28;20048;-67
2022/03/29 02:46:29;;;;;;;26.85;15.52;;;;;;;;;;5052913;28;20389;-66
2022/03/29 02:49:33;;;;;;;24.05;15.68;;;;;;;;;;5054729;28;20040;-66
2022/03/29 02:52:47;;;;;;;27.90;15.63;;;;;;;;;;5054143;28;20060;-67
2022/03/29 02:55:51;;;;;;;23.17;15.05;;;;;;;;;;5054192;28;20040;-67
2022/03/29 02:58:56;;;;;;;28.23;15.73;;;;;;;;;;5054139;28;20048;-67
2022/03/29 03:02:00;;;;;;;26.33;15.35;;;;;;;;;;5054752;28;20044;-65
2022/03/29 03:05:05;;;;;;;26.33;15.40;;;;;;;;;;5054001;28;20508;-66
2022/03/29 03:08:09;;;;;;;28.00;14.95;;;;;;;;;;5053476;28;20040;-68
2022/03/29 03:11:13;;;;;;;29.77;15.63;;;;;;;;;;5053198;28;20103;-66
2022/03/29 03:14:18;;;;;;;30.10;16.55;;;;;;;;;;5053459;28;20044;-65
2022/03/29 03:17:22;;;;;;;27.35;15.48;;;;;;;;;;5053248;28;20060;-66
2022/03/29 03:20:26;;;;;;;24.75;15.95;;;;;;;;;;5053768;28;20056;-66
2022/03/29 03:23:31;;;;;;;27.00;15.13;;;;;;;;;;5053601;28;20420;-67
2022/03/29 03:26:35;;;;;;;24.13;15.45;;;;;;;;;;5054024;28;20048;-67
2022/03/29 03:29:39;;;;;;;27.50;15.45;;;;;;;;;;5053483;28;20512;-65
2022/03/29 03:32:44;;;;;;;29.85;15.27;;;;;;;;;;5053232;28;20116;-67
2022/03/29 03:35:49;;;;;;;28.38;15.43;;;;;;;;;;5053373;28;20044;-66
2022/03/29 03:38:53;;;;;;;29.85;15.43;;;;;;;;;;5053183;28;20044;-67
2022/03/29 03:41:57;;;;;;;28.77;16.50;;;;;;;;;;5052920;28;20044;-68
2022/03/29 03:45:03;;;;;;;21.88;14.75;;;;;;;;;;5053055;28;20040;-67
2022/03/29 03:48:08;;;;;;;28.27;16.05;;;;;;;;;;5053137;28;20040;-68
2022/03/29 03:51:12;;;;;;;28.73;15.15;;;;;;;;;;5052987;28;20060;-67
2022/03/29 03:54:16;;;;;;;29.27;14.85;;;;;;;;;;5053095;28;20036;-67
2022/03/29 03:57:21;;;;;;;27.25;14.68;;;;;;;;;;5052943;28;20044;-67
2022/03/29 04:00:25;;;;;;;22.23;15.18;;;;;;;;;;5052970;28;20044;-67
2022/03/29 04:03:29;;;;;;;22.42;14.73;;;;;;;;;;5052908;28;20048;-67
2022/03/29 04:06:34;;;;;;;23.05;14.63;;;;;;;;;;5052873;28;20047;-67
2022/03/29 04:09:39;;;;;;;31.35;15.07;;;;;;;;;;5053014;28;20051;-67
2022/03/29 04:12:43;;;;;;;32.60;16.70;;;;;;;;;;5052600;28;20052;-67
2022/03/29 04:15:48;;;;;;;27.73;16.02;;;;;;;;;;5051768;28;20048;-67
2022/03/29 04:18:52;;;;;;;25.27;16.25;;;;;;;;;;5052583;28;20047;-67
2022/03/29 04:21:56;;;;;;;30.60;17.00;;;;;;;;;;5052353;28;20044;-66
2022/03/29 04:25:01;;;;;;;30.77;15.80;;;;;;;;;;5052571;28;20068;-66
2022/03/29 04:28:06;;;;;;;30.48;15.77;;;;;;;;;;5052241;28;20040;-67
2022/03/29 04:31:10;;;;;;;35.08;17.00;;;;;;;;;;5052637;28;20052;-67
2022/03/29 04:34:14;;;;;;;26.50;16.58;;;;;;;;;;5052231;28;20048;-67
2022/03/29 04:37:18;;;;;;;30.40;17.13;;;;;;;;;;5052386;28;20040;-66
2022/03/29 04:40:23;;;;;;;29.33;17.88;;;;;;;;;;5051379;28;20052;-66
2022/03/29 04:43:27;;;;;;;39.92;21.42;;;;;;;;;;5052027;28;20052;-67
2022/03/29 04:46:31;;;;;;;31.65;17.35;;;;;;;;;;5052139;28;20055;-66
2022/03/29 04:49:36;;;;;;;32.72;17.15;;;;;;;;;;5052075;28;20040;-66
2022/03/29 04:52:44;;;;;;;34.00;17.85;;;;;;;;;;5051828;28;20063;-66
2022/03/29 04:55:50;;;;;;;35.53;19.80;;;;;;;;;;5051927;28;20047;-67
2022/03/29 04:58:54;;;;;;;31.88;19.05;;;;;;;;;;5051769;28;20036;-67
2022/03/29 05:01:59;;;;;;;36.78;20.05;;;;;;;;;;5051719;28;20315;-66
2022/03/29 05:05:04;;;;;;;34.45;19.40;;;;;;;;;;5051797;28;20417;-66
2022/03/29 05:08:08;;;;;;;33.00;19.67;;;;;;;;;;5051169;28;20528;-67
2022/03/29 05:11:12;;;;;;;33.38;18.73;;;;;;;;;;5051477;28;20064;-67
2022/03/29 05:14:16;;;;;;;43.47;23.63;;;;;;;;;;5051764;28;20044;-66
2022/03/29 05:17:21;;;;;;;47.42;23.33;;;;;;;;;;5051878;28;20072;-66
2022/03/29 05:20:25;;;;;;;40.22;21.50;;;;;;;;;;5051398;28;20044;-67
2022/03/29 05:23:29;;;;;;;37.42;19.20;;;;;;;;;;5051469;28;20508;-65
2022/03/29 05:26:34;;;;;;;39.88;19.83;;;;;;;;;;5051531;28;20044;-62
2022/03/29 05:29:38;;;;;;;44.28;21.73;;;;;;;;;;5051287;28;20044;-63
2022/03/29 05:32:42;;;;;;;43.85;19.77;;;;;;;;;;5051191;28;20535;-63
2022/03/29 05:35:47;;;;;;;51.95;21.83;;;;;;;;;;5051227;28;20048;-64
2022/03/29 05:38:52;;;;;;;38.30;19.58;;;;;;;;;;5051393;28;20418;-62
2022/03/29 05:41:56;;;;;;;47.08;19.23;;;;;;;;;;5050975;28;20048;-62
2022/03/29 05:45:00;;;;;;;39.38;19.70;;;;;;;;;;5051193;28;20052;-64
2022/03/29 05:51:30;;;;;;;41.85;20.67;;;;;;;;;;5051102;28;20056;-64
2022/03/29 05:54:35;;;;;;;40.00;19.40;;;;;;;;;;5051080;28;20048;-62
2022/03/29 05:57:39;;;;;;;32.70;18.83;;;;;;;;;;5050899;28;20059;-63
2022/03/29 06:00:44;;;;;;;37.85;19.83;;;;;;;;;;5050886;28;20199;-63
2022/03/29 06:03:48;;;;;;;31.13;18.92;;;;;;;;;;5050588;28;20056;-64
2022/03/29 06:06:52;;;;;;;34.50;19.10;;;;;;;;;;5050695;28;20048;-63
2022/03/29 06:09:57;;;;;;;38.90;18.52;;;;;;;;;;5050733;28;20115;-63
2022/03/29 06:13:01;;;;;;;32.22;19.88;;;;;;;;;;5050596;28;20052;-64
2022/03/29 06:16:05;;;;;;;43.17;20.17;;;;;;;;;;5050683;28;20056;-65
2022/03/29 06:19:10;;;;;;;41.20;20.10;;;;;;;;;;5050954;28;20052;-66
2022/03/29 06:22:15;;;;;;;39.72;20.00;;;;;;;;;;5054912;28;20484;-62
2022/03/29 06:25:19;;;;;;;32.15;20.42;;;;;;;;;;5054384;28;20063;-66
2022/03/29 06:28:23;;;;;;;51.20;22.33;;;;;;;;;;5054765;28;20488;-63
2022/03/29 06:31:27;;;;;;;37.92;21.50;;;;;;;;;;5054156;28;20075;-63
2022/03/29 06:34:32;;;;;;;46.85;22.10;;;;;;;;;;5054317;28;20052;-63
2022/03/29 06:37:36;;;;;;;36.78;21.50;;;;;;;;;;5053942;28;20048;-63
2022/03/29 06:40:41;;;;;;;41.38;20.73;;;;;;;;;;5053311;28;20060;-63
2022/03/29 06:43:46;;;;;;;43.47;19.77;;;;;;;;;;5054523;28;20040;-71
2022/03/29 06:46:50;;;;;;;40.38;19.63;;;;;;;;;;5053335;28;20147;-63
2022/03/29 06:49:54;;;;;;;34.38;19.23;;;;;;;;;;5054178;28;20052;-64
2022/03/29 06:52:59;;;;;;;41.38;20.08;;;;;;;;;;5054147;28;20056;-64
2022/03/29 06:56:04;;;;;;;36.00;20.02;;;;;;;;;;5054057;28;20381;-63
2022/03/29 06:59:08;;;;;;;37.78;16.70;;;;;;;;;;5053987;28;20044;-63
2022/03/29 07:02:13;;;;;;;30.98;17.70;;;;;;;;;;5054008;28;20044;-63
2022/03/29 07:05:19;;;;;;;39.35;18.90;;;;;;;;;;5053926;28;20044;-62
2022/03/29 07:08:23;;;;;;;33.78;18.60;;;;;;;;;;5053726;28;20044;-62
2022/03/29 07:11:27;;;;;;;58.40;21.38;;;;;;;;;;5053017;28;20051;-64
2022/03/29 07:14:32;;;;;;;37.20;18.63;;;;;;;;;;5053743;28;20508;-63
2022/03/29 07:17:36;;;;;;;32.20;15.23;;;;;;;;;;5052848;28;20060;-63
2022/03/29 07:20:40;;;;;;;27.30;15.80;;;;;;;;;;5053153;28;20036;-63
2022/03/29 07:23:45;;;;;;;29.27;16.02;;;;;;;;;;5052646;28;20044;-63
2022/03/29 07:26:49;;;;;;;32.35;15.45;;;;;;;;;;5053731;28;20388;-65
2022/03/29 07:29:54;;;;;;;33.75;16.38;;;;;;;;;;5053497;28;20047;-62
2022/03/29 07:32:58;;;;;;;38.35;15.57;;;;;;;;;;5052896;28;20075;-63
2022/03/29 07:36:05;;;;;;;28.90;15.90;;;;;;;;;;5053514;28;20068;-64
2022/03/29 07:39:09;;;;;;;27.75;16.20;;;;;;;;;;5053528;28;20071;-64
2022/03/29 07:42:13;;;;;;;40.17;16.35;;;;;;;;;;5052492;28;20511;-63
2022/03/29 07:45:18;;;;;;;30.27;15.25;;;;;;;;;;5053379;28;20040;-63
2022/03/29 07:48:22;;;;;;;56.42;17.48;;;;;;;;;;5053456;28;20060;-65
2022/03/29 07:51:27;;;;;;;34.03;15.98;;;;;;;;;;5052878;28;20215;-62
2022/03/29 07:54:31;;;;;;;30.45;16.13;;;;;;;;;;5053052;28;20036;-64
2022/03/29 07:57:35;;;;;;;28.40;15.38;;;;;;;;;;5053133;28;20052;-63
2022/03/29 08:00:40;;;;;;;37.13;15.55;;;;;;;;;;5052620;28;20052;-64
2022/03/29 08:03:44;;;;;;;33.85;17.85;;;;;;;;;;5053127;28;20063;-63
2022/03/29 08:06:48;;;;;;;36.92;16.00;;;;;;;;;;5052827;28;20052;-66
2022/03/29 08:09:52;;;;;;;23.05;13.38;;;;;;;;;;5052735;28;20048;-62
2022/03/29 08:12:57;;;;;;;28.60;13.20;;;;;;;;;;5052835;28;20044;-63
2022/03/29 08:16:02;;;;;;;26.55;14.52;;;;;;;;;;5052395;28;20063;-65
2022/03/29 08:19:06;;;;;;;30.90;12.68;;;;;;;;;;5052565;28;20052;-63
2022/03/29 08:22:11;;;;;;;25.27;13.65;;;;;;;;;;5052796;28;20052;-63
2022/03/29 08:25:16;;;;;;;31.00;15.13;;;;;;;;;;5051561;28;20512;-66
2022/03/29 08:28:21;;;;;;;24.17;12.77;;;;;;;;;;5052436;28;20515;-66
2022/03/29 08:31:26;;;;;;;36.00;13.18;;;;;;;;;;5052365;28;20052;-62
2022/03/29 08:34:31;;;;;;;26.02;11.57;;;;;;;;;;5052482;28;20048;-62
2022/03/29 08:37:36;;;;;;;39.85;13.00;;;;;;;;;;5052308;28;20044;-63
2022/03/29 08:40:41;;;;;;;22.20;12.52;;;;;;;;;;5051668;28;20036;-63
2022/03/29 08:43:45;;;;;;;25.83;11.98;;;;;;;;;;5050673;28;20036;-64
2022/03/29 08:46:50;;;;;;;28.55;12.20;;;;;;;;;;5052276;28;20048;-63
2022/03/29 08:49:54;;;;;;;24.48;12.30;;;;;;;;;;5052189;28;20048;-63
2022/03/29 08:52:59;;;;;;;21.98;10.88;;;;;;;;;;5051591;28;20115;-63
2022/03/29 08:56:03;;;;;;;19.42;10.10;;;;;;;;;;5051734;28;20048;-64
2022/03/29 08:59:07;;;;;;;24.40;8.85;;;;;;;;;;5051069;28;20056;-63
2022/03/29 09:02:13;;;;;;;16.35;7.88;;;;;;;;;;5051257;28;20056;-64
2022/03/29 09:05:17;;;;;;;23.05;8.55;;;;;;;;;;5051350;28;20043;-64
2022/03/29 09:08:22;;;;;;;20.30;8.18;;;;;;;;;;5050510;28;20040;-62
2022/03/29 09:11:39;;;;;;;19.75;8.20;;;;;;;;;;5051732;28;20052;-62
2022/03/29 09:15:09;;;;;;;23.25;8.73;;;;;;;;;;5039263;28;20043;-63
2022/03/29 09:18:14;;;;;;;20.27;8.68;;;;;;;;;;5051482;28;20074;-63
2022/03/29 09:21:18;;;;;;;16.13;5.93;;;;;;;;;;5051417;28;20044;-63
2022/03/29 09:24:23;;;;;;;16.30;5.53;;;;;;;;;;5051458;28;20048;-64
2022/03/29 09:27:27;;;;;;;19.35;6.45;;;;;;;;;;5051358;28;20055;-62
2022/03/29 09:30:38;;;;;;;18.27;5.28;;;;;;;;;;5050410;28;20044;-62
2022/03/29 09:33:43;;;;;;;;;;;;;;;;;;5051722;28;20511;-63
2022/03/29 09:36:52;;;;;;;16.50;4.25;;;;;;;;;;5051781;28;19924;-62
2022/03/29 09:39:56;;;;;;;15.00;4.38;;;;;;;;;;5051110;28;20389;-63
2022/03/29 09:43:20;;;;;;;14.10;5.13;;;;;;;;;;5050310;28;20498;-63
2022/03/29 09:46:25;;;;;;;17.30;5.43;;;;;;;;;;5051237;28;20043;-62
2022/03/29 09:49:30;;;;;;;19.92;6.40;;;;;;;;;;5038961;28;20504;-62
2022/03/29 09:52:40;;;;;;;26.23;11.18;;;;;;;;;;5050685;28;20068;-61
2022/03/29 09:55:58;;;;;;;20.90;6.85;;;;;;;;;;5051054;28;20048;-62
2022/03/29 09:59:14;;;;;;;23.63;6.22;;;;;;;;;;5050630;28;20409;-61
2022/03/29 10:02:18;;;;;;;15.98;5.30;;;;;;;;;;5050817;28;20048;-63
2022/03/29 10:05:23;;;;;;;17.30;6.30;;;;;;;;;;5049894;28;20043;-63
2022/03/29 10:11:52;;;;;;;18.83;7.13;;;;;;;;;;5050715;28;20047;-62
2022/03/29 10:14:58;;;;;;;20.15;6.90;;;;;;;;;;5050628;28;20040;-63
2022/03/29 10:18:03;;;;;;;13.38;5.75;;;;;;;;;;5050616;28;20059;-65
2022/03/29 10:21:09;;;;;;;20.20;6.20;;;;;;;;;;5050404;28;20393;-63
2022/03/29 10:24:13;;;;;;;12.23;5.75;;;;;;;;;;5050859;28;20056;-63
2022/03/29 10:27:20;;;;;;;19.00;5.22;;;;;;;;;;5050541;28;20052;-61
2022/03/29 10:30:34;;;;;;;20.85;5.50;;;;;;;;;;5037874;28;20110;-62
2022/03/29 10:33:38;;;;;;;15.38;6.63;;;;;;;;;;5050670;28;20400;-62
2022/03/29 10:37:01;;;;;;;27.70;8.18;;;;;;;;;;5050448;28;20040;-65
2022/03/29 10:40:07;;;;;;;23.92;8.60;;;;;;;;;;5050237;28;20056;-63
2022/03/29 10:43:30;;;;;;;16.85;6.57;;;;;;;;;;5050136;28;20516;-63
2022/03/29 10:46:39;;;;;;;15.45;6.07;;;;;;;;;;5050246;28;20039;-64
2022/03/29 10:49:48;;;;;;;19.67;6.65;;;;;;;;;;5050080;28;20056;-64
2022/03/29 10:52:53;;;;;;;12.00;6.10;;;;;;;;;;5050213;28;20059;-63
2022/03/29 10:56:27;;;;;;;17.63;7.10;;;;;;;;;;5050261;28;20421;-65
2022/03/29 10:59:32;;;;;;;16.55;5.75;;;;;;;;;;5050349;28;20044;-64
2022/03/29 11:02:36;;;;;;;24.75;7.90;;;;;;;;;;5050537;28;20048;-64
2022/03/29 11:05:59;;;;;;;17.42;6.60;;;;;;;;;;5050118;28;20048;-65
2022/03/29 11:09:04;;;;;;;22.42;6.40;;;;;;;;;;5054141;28;20047;-66
2022/03/29 11:12:30;;;;;;;16.52;7.32;;;;;;;;;;5053771;28;20085;-64
2022/03/29 11:15:39;;;;;;;19.48;6.22;;;;;;;;;;5053375;28;20048;-66
2022/03/29 11:18:43;;;;;;;23.33;6.57;;;;;;;;;;5053081;28;20047;-64
2022/03/29 11:21:47;;;;;;;19.30;7.53;;;;;;;;;;5053849;28;20044;-66
2022/03/29 11:24:52;;;;;;;16.10;6.18;;;;;;;;;;5054096;28;20495;-65
2022/03/29 11:28:11;;;;;;;21.35;6.45;;;;;;;;;;5053413;28;20043;-63
2022/03/29 11:31:15;;;;;;;20.48;8.10;;;;;;;;;;5053223;28;20096;-64
2022/03/29 11:34:19;;;;;;;16.55;7.32;;;;;;;;;;5053532;28;20396;-64
2022/03/29 11:37:27;;;;;;;18.65;7.65;;;;;;;;;;5053544;28;20044;-63
2022/03/29 11:40:33;;;;;;;23.48;8.40;;;;;;;;;;5052434;28;20242;-63
2022/03/29 11:43:37;;;;;;;18.33;7.53;;;;;;;;;;5053229;28;20040;-65
2022/03/29 11:46:47;;;;;;;18.52;7.43;;;;;;;;;;5053643;28;20052;-65
2022/03/29 11:49:51;;;;;;;16.27;7.05;;;;;;;;;;5052606;28;20044;-64
2022/03/29 11:52:56;;;;;;;18.30;7.22;;;;;;;;;;5052674;28;20060;-64
2022/03/29 11:56:03;;;;;;;21.95;7.55;;;;;;;;;;5051980;28;20044;-63
2022/03/29 11:59:17;;;;;;;19.95;7.03;;;;;;;;;;5053458;28;20040;-65
2022/03/29 12:02:25;;;;;;;18.17;7.13;;;;;;;;;;5052949;28;20040;-64
2022/03/29 12:05:29;;;;;;;21.55;7.43;;;;;;;;;;5053040;28;20040;-65
2022/03/29 12:08:44;;;;;;;19.15;6.15;;;;;;;;;;5052780;28;20044;-65
2022/03/29 12:11:48;;;;;;;26.13;5.70;;;;;;;;;;5052747;28;20127;-63
2022/03/29 12:15:06;;;;;;;30.40;6.28;;;;;;;;;;5052592;28;20051;-64
2022/03/29 12:21:33;;;;;;;15.48;4.80;;;;;;;;;;5052413;28;20048;-65
2022/03/29 12:24:42;;;;;;;28.05;6.15;;;;;;;;;;5052523;28;20048;-64
2022/03/29 12:27:47;;;;;;;34.05;12.70;;;;;;;;;;5052123;28;20048;-65
2022/03/29 12:30:54;;;;;;;19.05;6.35;;;;;;;;;;5051818;28;20393;-66
2022/03/29 12:33:59;;;;;;;17.60;5.13;;;;;;;;;;5052565;28;20052;-64
2022/03/29 12:37:04;;;;;;;18.25;5.30;;;;;;;;;;5052266;28;20040;-64
2022/03/29 12:40:14;;;;;;;19.10;6.68;;;;;;;;;;5052644;28;20044;-66
2022/03/29 12:43:25;;;;;;;21.73;6.60;;;;;;;;;;5051667;28;20044;-67
2022/03/29 12:46:30;;;;;;;22.55;6.65;;;;;;;;;;5052325;28;20048;-65
2022/03/29 12:49:35;;;;;;;12.95;5.35;;;;;;;;;;5052105;28;20044;-64
2022/03/29 12:52:40;;;;;;;19.17;4.28;;;;;;;;;;5051359;28;20060;-66
2022/03/29 12:55:55;;;;;;;16.98;4.13;;;;;;;;;;5052081;28;20044;-64
2022/03/29 12:59:00;;;;;;;17.45;5.03;;;;;;;;;;5051867;28;20044;-65
2022/03/29 13:02:23;;;;;;;16.95;4.78;;;;;;;;;;5051718;28;20072;-66
2022/03/29 13:05:33;;;;;;;13.25;4.28;;;;;;;;;;5051827;28;20048;-64
2022/03/29 13:08:38;;;;;;;13.38;4.68;;;;;;;;;;5051980;28;20044;-65
2022/03/29 13:11:42;;;;;;;15.23;3.92;;;;;;;;;;5051870;28;20048;-66
2022/03/29 13:14:46;;;;;;;19.73;4.43;;;;;;;;;;5051683;28;20500;-66
2022/03/29 13:17:51;;;;;;;20.65;4.25;;;;;;;;;;5051137;28;20055;-64
2022/03/29 13:21:07;;;;;;;12.52;4.10;;;;;;;;;;5051900;28;20048;-65
2022/03/29 13:24:16;;;;;;;17.08;4.95;;;;;;;;;;5051539;28;20072;-66
2022/03/29 13:27:20;;;;;;;15.38;4.07;;;;;;;;;;5051582;28;20052;-67
2022/03/29 13:30:25;;;;;;;13.40;4.05;;;;;;;;;;5050866;28;20048;-66
2022/03/29 13:33:29;;;;;;;15.32;3.75;;;;;;;;;;5051224;28;20052;-65
2022/03/29 13:36:34;;;;;;;16.52;4.25;;;;;;;;;;5051377;28;20044;-64
2022/03/29 13:39:39;;;;;;;20.90;4.13;;;;;;;;;;5051327;28;20052;-65
2022/03/29 13:42:43;;;;;;;16.92;4.30;;;;;;;;;;5051364;28;20052;-64
2022/03/29 13:45:47;;;;;;;16.27;4.53;;;;;;;;;;5051244;28;20401;-64
2022/03/29 13:48:52;;;;;;;18.15;4.80;;;;;;;;;;5051138;28;20500;-65
2022/03/29 13:51:57;;;;;;;14.68;3.63;;;;;;;;;;5050202;28;20397;-64
2022/03/29 13:55:01;;;;;;;17.00;4.22;;;;;;;;;;5050995;28;20052;-66
2022/03/29 13:58:06;;;;;;;18.50;4.55;;;;;;;;;;5050906;28;20631;-65
2022/03/29 14:01:11;;;;;;;13.80;5.47;;;;;;;;;;5051088;28;20039;-64
2022/03/29 14:04:15;;;;;;;15.25;4.82;;;;;;;;;;5050655;28;20060;-65
2022/03/29 14:07:19;;;;;;;12.10;3.95;;;;;;;;;;5050755;28;20036;-65
2022/03/29 14:10:24;;;;;;;12.68;3.53;;;;;;;;;;5050690;28;20051;-64
2022/03/29 14:13:29;;;;;;;14.32;4.55;;;;;;;;;;5050735;28;20401;-65
2022/03/29 14:16:34;;;;;;;20.30;4.82;;;;;;;;;;5050178;28;20056;-64
2022/03/29 14:19:38;;;;;;;15.15;3.50;;;;;;;;;;5050523;28;20135;-65
2022/03/29 14:22:44;;;;;;;13.68;4.80;;;;;;;;;;5050499;28;20048;-61
2022/03/29 14:25:49;;;;;;;24.20;6.25;;;;;;;;;;5050366;28;20044;-64
2022/03/29 14:28:54;;;;;;;16.15;4.32;;;;;;;;;;5050946;28;20048;-63
2022/03/29 14:32:02;;;;;;;21.08;4.70;;;;;;;;;;5049717;28;20052;-63
2022/03/29 14:35:07;;;;;;;20.73;4.00;;;;;;;;;;5050451;28;20400;-61
2022/03/29 14:38:11;;;;;;;16.80;5.22;;;;;;;;;;5050624;28;20511;-63
2022/03/29 14:41:17;;;;;;;19.73;5.38;;;;;;;;;;5050665;28;20036;-62
2022/03/29 14:44:21;;;;;;;16.90;5.78;;;;;;;;;;5054331;28;20044;-63
2022/03/29 14:47:25;;;;;;;19.25;6.35;;;;;;;;;;5053461;28;20052;-62
2022/03/29 14:50:30;;;;;;;15.07;4.70;;;;;;;;;;5054545;28;20048;-61
2022/03/29 14:53:34;;;;;;;13.70;4.40;;;;;;;;;;5054244;28;20539;-63
2022/03/29 14:56:39;;;;;;;18.23;4.50;;;;;;;;;;5053848;28;20048;-65
2022/03/29 14:59:43;;;;;;;15.55;5.35;;;;;;;;;;5053872;28;20040;-63
2022/03/29 15:02:47;;;;;;;18.88;4.38;;;;;;;;;;5054213;28;20044;-64
2022/03/29 15:05:52;;;;;;;16.77;4.53;;;;;;;;;;5053735;28;20111;-64
2022/03/29 15:08:56;;;;;;;19.15;4.25;;;;;;;;;;5054166;28;20641;-66
2022/03/29 15:12:01;;;;;;;16.67;5.95;;;;;;;;;;5053830;28;20603;-65
2022/03/29 15:15:06;;;;;;;18.48;4.75;;;;;;;;;;5053221;28;20060;-63
2022/03/29 15:18:10;;;;;;;20.23;5.63;;;;;;;;;;5053142;28;20388;-62
2022/03/29 15:21:15;;;;;;;14.05;4.30;;;;;;;;;;5053909;28;20056;-65
2022/03/29 15:24:19;;;;;;;15.50;4.85;;;;;;;;;;5052980;28;20059;-64
2022/03/29 15:27:24;;;;;;;17.15;5.32;;;;;;;;;;5053417;28;20205;-63
2022/03/29 15:30:28;;;;;;;17.95;5.35;;;;;;;;;;5052425;28;20051;-62
2022/03/29 15:33:32;;;;;;;18.52;4.75;;;;;;;;;;5052837;28;20054;-63
2022/03/29 15:36:39;;;;;;;19.13;4.75;;;;;;;;;;5052564;28;20048;-65
2022/03/29 15:39:45;;;;;;;19.17;4.78;;;;;;;;;;5052212;28;20067;-66
2022/03/29 15:42:49;;;;;;;15.40;4.68;;;;;;;;;;5052010;28;20044;-67
2022/03/29 15:45:54;;;;;;;14.38;4.10;;;;;;;;;;5053150;28;20077;-64
2022/03/29 15:48:58;;;;;;;16.40;4.03;;;;;;;;;;5053084;28;20044;-62
2022/03/29 15:52:04;;;;;;;13.15;4.03;;;;;;;;;;5051907;28;20492;-64
2022/03/29 15:55:08;;;;;;;15.95;4.53;;;;;;;;;;5052755;28;20064;-63
2022/03/29 15:58:18;;;;;;;16.45;4.95;;;;;;;;;;5053038;28;20036;-65
2022/03/29 16:01:23;;;;;;;12.48;4.00;;;;;;;;;;5052921;28;20056;-65
2022/03/29 16:04:27;;;;;;;19.27;5.20;;;;;;;;;;5052521;28;20040;-64
2022/03/29 16:07:31;;;;;;;17.23;4.43;;;;;;;;;;5052454;28;20195;-64
2022/03/29 16:10:36;;;;;;;16.83;5.13;;;;;;;;;;5052615;28;20044;-63
2022/03/29 16:13:40;;;;;;;14.20;4.60;;;;;;;;;;5052724;28;20052;-64
2022/03/29 16:16:45;;;;;;;20.15;5.43;;;;;;;;;;5052734;28;20060;-67
2022/03/29 16:19:49;;;;;;;15.82;5.57;;;;;;;;;;5052756;28;20384;-63
2022/03/29 16:22:54;;;;;;;14.93;4.35;;;;;;;;;;5052492;28;20048;-64
2022/03/29 16:25:58;;;;;;;18.20;4.60;;;;;;;;;;5052224;28;20048;-65
2022/03/29 16:29:04;;;;;;;28.85;6.13;;;;;;;;;;5051813;28;20044;-65
2022/03/29 16:32:08;;;;;;;20.40;4.78;;;;;;;;;;5052132;28;20051;-63
2022/03/29 16:35:12;;;;;;;17.65;4.22;;;;;;;;;;5052158;28;20052;-64
2022/03/29 16:38:16;;;;;;;15.63;5.25;;;;;;;;;;5051568;28;20040;-64
2022/03/29 16:41:21;;;;;;;14.60;4.78;;;;;;;;;;5051870;28;20051;-63
2022/03/29 16:44:25;;;;;;;14.93;4.22;;;;;;;;;;5051573;28;20048;-63
2022/03/29 16:47:29;;;;;;;18.48;5.35;;;;;;;;;;5051920;28;20040;-66
2022/03/29 16:50:34;;;;;;;23.77;5.32;;;;;;;;;;5051924;28;20056;-65
2022/03/29 16:53:39;;;;;;;13.52;5.22;;;;;;;;;;5051481;28;20597;-63
2022/03/29 16:56:43;;;;;;;24.05;6.75;;;;;;;;;;5050389;28;20053;-64
2022/03/29 16:59:48;;;;;;;18.33;6.18;;;;;;;;;;5051090;28;20048;-63
2022/03/29 17:02:52;;;;;;;12.13;5.07;;;;;;;;;;5050613;28;20375;-65
2022/03/29 17:05:56;;;;;;;15.90;5.15;;;;;;;;;;5050513;28;20044;-64
2022/03/29 17:09:04;;;;;;;17.73;6.35;;;;;;;;;;5051818;28;20052;-64
2022/03/29 17:12:09;;;;;;;20.98;6.35;;;;;;;;;;5051583;28;20449;-66
2022/03/29 17:15:13;;;;;;;16.55;5.47;;;;;;;;;;5050518;28;20048;-65
2022/03/29 17:18:17;;;;;;;16.65;5.25;;;;;;;;;;5051499;28;20048;-65
2022/03/29 17:21:22;;;;;;;20.20;6.10;;;;;;;;;;5050773;28;20055;-65
2022/03/29 17:24:26;;;;;;;17.33;5.93;;;;;;;;;;5051218;28;20048;-63
2022/03/29 17:27:31;;;;;;;28.67;6.55;;;;;;;;;;5050885;28;20056;-63
2022/03/29 17:30:36;;;;;;;21.45;7.13;;;;;;;;;;5050974;28;20047;-64
2022/03/29 17:33:41;;;;;;;29.80;13.65;;;;;;;;;;5050480;28;20059;-66
2022/03/29 17:36:45;;;;;;;32.00;11.65;;;;;;;;;;5049999;28;20055;-65
2022/03/29 17:39:49;;;;;;;41.28;12.98;;;;;;;;;;5051234;28;20063;-64
2022/03/29 17:42:54;;;;;;;19.10;7.50;;;;;;;;;;5039476;28;20059;-70
2022/03/29 17:45:59;;;;;;;21.73;6.90;;;;;;;;;;5051255;28;20056;-71
2022/03/29 17:49:04;;;;;;;22.00;9.27;;;;;;;;;;5051026;28;20234;-70
2022/03/29 17:52:08;;;;;;;21.00;8.35;;;;;;;;;;5051222;28;20051;-69
2022/03/29 17:55:13;;;;;;;26.40;8.95;;;;;;;;;;5038303;28;20052;-70
2022/03/29 17:58:18;;;;;;;18.77;7.28;;;;;;;;;;5049175;28;20040;-70
2022/03/29 18:01:22;;;;;;;21.48;9.75;;;;;;;;;;5049561;28;20036;-70
2022/03/29 18:04:26;;;;;;;22.77;10.10;;;;;;;;;;5049628;28;20048;-69
2022/03/29 18:07:31;;;;;;;17.77;8.65;;;;;;;;;;5049679;28;20048;-70
2022/03/29 18:10:37;;;;;;;23.55;9.02;;;;;;;;;;5050507;28;20404;-69
2022/03/29 18:13:42;;;;;;;18.17;8.18;;;;;;;;;;5050321;28;20223;-70
2022/03/29 18:16:46;;;;;;;21.27;8.82;;;;;;;;;;5049947;28;20074;-71
2022/03/29 18:19:51;;;;;;;32.17;12.70;;;;;;;;;;5050879;28;20059;-70
2022/03/29 18:22:57;;;;;;;21.75;8.93;;;;;;;;;;5050303;28;20039;-69
2022/03/29 18:26:01;;;;;;;23.23;9.77;;;;;;;;;;5050645;28;20060;-70